Terminal Aerodrome Forecast
Issued by NWS Sterling, VA

Current Version | Previous Version | Graphics & Text | Print | Product List | Glossary On
Versions: 1 2 3 4 5 6 7 8 9 10 11 12 13 14 15 16 17 18 19 20 21 22 23 24 25 26 27 28 29 30 31 32 33
000
FTUS41 KLWX 031540 AAB
TAFIAD
TAF AMD
KIAD 031540Z 0316/0418 15005KT P6SM BKN050
     FM031800 17007KT P6SM OVC030
      TEMPO 0318/0322 6SM -FZRAPL OVC030
     FM032200 16010KT 3SM BR OVC012
      TEMPO 0322/0401 5SM -FZRA OVC008
     FM040300 20010KT 2SM BR OVC004
     FM041000 21005KT 2SM -RA OVC004=

USA.gov is the U.S. government's official web portal to all federal, state and local government web resources and services.